Time;durP1;ratioP1;P1;durP2;ratioP2;P2;SDS_P1;SDS_P2;PMS_P1;PMS_P2;Temp;Humidity;BMP_temperature;BMP_pressure;BME280_temperature;BME280_humidity;BME280_pressure;Samples;Min_cycle;Max_cycle;Signal;HPM_P1;HPM_P2
2021/06/20 00:00:29;;;;;;;13.40;4.80;;;24.20;99.90;;;24.94;97.22;97387.00;5067622;28;20476;-79
2021/06/20 00:02:58;;;;;;;19.50;5.10;;;24.30;99.90;;;24.96;97.83;97392.03;5068496;28;20948;-79
2021/06/20 00:05:32;;;;;;;13.20;4.00;;;24.20;99.90;;;24.88;99.31;97393.53;5068435;28;20960;-79
2021/06/20 00:08:03;;;;;;;16.63;4.30;;;24.10;99.90;;;24.74;100.00;97400.69;5066418;28;20456;-79
2021/06/20 00:10:35;;;;;;;16.03;4.00;;;23.80;99.90;;;24.72;100.00;97415.44;5070095;28;20487;-79
2021/06/20 00:13:04;;;;;;;16.67;3.43;;;23.80;99.90;;;24.80;100.00;97423.59;5065595;28;21056;-79
2021/06/20 00:15:35;;;;;;;14.60;4.03;;;24.00;99.90;;;24.83;100.00;97432.94;5065258;28;20468;-79
2021/06/20 00:18:06;;;;;;;15.57;5.17;;;24.10;99.90;;;24.84;100.00;97429.19;5064318;28;20486;-79
2021/06/20 00:20:38;;;;;;;16.40;3.80;;;24.10;99.90;;;24.80;100.00;97428.94;5064471;28;20469;-79
2021/06/20 00:23:08;;;;;;;29.97;5.70;;;24.10;99.90;;;24.79;100.00;97415.84;5067241;28;20475;-79
2021/06/20 00:25:37;;;;;;;20.70;4.20;;;24.10;99.90;;;24.81;100.00;97409.13;5066791;28;20463;-79
2021/06/20 00:28:07;;;;;;;15.43;5.17;;;24.00;99.90;;;24.78;100.00;97407.03;5067970;28;20869;-79
2021/06/20 00:30:37;;;;;;;16.00;4.63;;;23.90;99.90;;;24.82;100.00;97417.94;5068076;28;21077;-79
2021/06/20 00:33:07;;;;;;;8.90;4.07;;;24.00;99.90;;;24.75;100.00;97422.91;5067938;28;20487;-79
2021/06/20 00:35:35;;;;;;;17.73;4.60;;;23.90;99.90;;;24.76;100.00;97419.13;5068370;28;20441;-79
2021/06/20 00:38:04;;;;;;;13.33;4.30;;;24.00;99.90;;;24.73;100.00;97409.00;5064562;28;20499;-79
2021/06/20 00:40:34;;;;;;;18.43;4.60;;;24.00;99.90;;;24.71;100.00;97406.63;5068003;28;20445;-79
2021/06/20 00:43:02;;;;;;;12.77;4.67;;;23.90;99.90;;;24.62;100.00;97410.25;5068365;28;20996;-79
2021/06/20 00:45:31;;;;;;;18.20;4.80;;;23.90;99.90;;;24.61;100.00;97414.03;5067855;28;20440;-79
2021/06/20 00:48:00;;;;;;;21.50;5.63;;;23.80;99.90;;;24.50;100.00;97408.06;5068327;28;20521;-79
2021/06/20 00:50:29;;;;;;;21.33;5.93;;;23.60;99.90;;;24.51;100.00;97409.63;5067872;28;20506;-79
2021/06/20 00:53:00;;;;;;;16.27;5.20;;;23.60;99.90;;;24.50;100.00;97422.19;5067820;28;20545;-79
2021/06/20 00:55:31;;;;;;;15.47;5.10;;;23.60;99.90;;;24.49;100.00;97409.94;5067646;28;20494;-79
2021/06/20 00:58:03;;;;;;;24.13;5.20;;;23.60;99.90;;;24.49;100.00;97401.91;5068588;28;20448;-79
2021/06/20 01:00:34;;;;;;;22.23;5.03;;;23.60;99.90;;;24.50;100.00;97402.72;5067535;28;20882;-80
2021/06/20 01:03:04;;;;;;;22.17;5.40;;;23.60;99.90;;;24.44;100.00;97391.28;5064703;28;20483;-79
2021/06/20 01:05:33;;;;;;;16.33;6.23;;;23.60;99.90;;;24.43;100.00;97387.03;5062736;28;20498;-79
2021/06/20 01:08:02;;;;;;;18.20;5.00;;;23.50;99.90;;;24.48;100.00;97397.63;5065395;28;20503;-79
2021/06/20 01:10:35;;;;;;;17.50;5.83;;;23.60;99.90;;;24.45;100.00;97405.44;5066349;28;20518;-79
2021/06/20 01:13:08;;;;;;;19.90;5.00;;;23.50;99.90;;;24.38;100.00;97413.84;5065674;28;20495;-79
2021/06/20 01:15:38;;;;;;;15.07;4.47;;;23.40;99.90;;;24.36;100.00;97407.22;5065736;28;20464;-79
2021/06/20 01:18:11;;;;;;;23.37;6.60;;;23.40;99.90;;;24.37;100.00;97408.78;5064571;28;20462;-79
2021/06/20 01:20:40;;;;;;;12.13;4.30;;;23.40;99.90;;;24.35;100.00;97411.75;5065632;28;20952;-79
2021/06/20 01:23:11;;;;;;;25.73;5.50;;;23.40;99.90;;;24.36;100.00;97415.22;5061473;28;20537;-79
2021/06/20 01:25:43;;;;;;;31.37;5.50;;;23.50;99.90;;;24.34;100.00;97428.88;5064330;28;20794;-79
2021/06/20 01:28:13;;;;;;;15.87;5.20;;;23.50;99.90;;;24.31;100.00;97408.06;5064607;28;20529;-79
2021/06/20 01:30:45;;;;;;;13.47;4.80;;;23.40;99.90;;;24.26;100.00;97397.44;5065318;28;20464;-79
2021/06/20 01:33:15;;;;;;;19.43;5.43;;;23.30;99.90;;;24.29;100.00;97404.13;5065943;28;20495;-79
2021/06/20 01:35:44;;;;;;;18.97;6.50;;;23.30;99.90;;;24.24;100.00;97418.34;5064478;28;20526;-79
2021/06/20 01:38:14;;;;;;;13.30;4.33;;;23.20;99.90;;;24.22;100.00;97423.19;5066177;28;20859;-79
2021/06/20 01:40:43;;;;;;;12.43;5.10;;;23.20;99.90;;;24.19;100.00;97433.66;5062863;28;20472;-79
2021/06/20 01:43:13;;;;;;;9.67;4.27;;;23.10;99.90;;;24.19;100.00;97447.03;5066133;28;20533;-79
2021/06/20 01:45:42;;;;;;;21.73;5.07;;;23.20;99.90;;;24.16;100.00;97440.34;5066222;28;20447;-79
2021/06/20 01:48:12;;;;;;;11.80;5.00;;;23.20;99.90;;;24.16;100.00;97455.63;5064742;28;20464;-79
2021/06/20 01:50:41;;;;;;;14.90;5.20;;;23.20;99.90;;;24.16;100.00;97448.38;5065715;28;20522;-79
2021/06/20 01:53:12;;;;;;;21.30;5.10;;;23.30;99.90;;;24.17;100.00;97441.97;5065934;28;20991;-79
2021/06/20 01:55:46;;;;;;;11.53;4.87;;;23.10;99.90;;;24.20;100.00;97444.06;5062537;28;20487;-79
2021/06/20 01:58:17;;;;;;;12.70;5.00;;;23.10;99.90;;;24.13;100.00;97440.94;5063887;28;20509;-79
2021/06/20 02:00:51;;;;;;;15.47;4.33;;;23.30;99.90;;;24.13;100.00;97453.50;5062664;28;20488;-79
2021/06/20 02:03:23;;;;;;;12.37;4.70;;;23.30;99.90;;;24.05;100.00;97498.47;5062063;28;20631;-79
2021/06/20 02:05:56;;;;;;;14.37;4.70;;;23.20;99.90;;;24.04;100.00;97515.59;5065516;28;20521;-79
2021/06/20 02:08:26;;;;;;;9.73;4.50;;;23.20;99.90;;;24.01;100.00;97526.84;5065869;28;21109;-79
2021/06/20 02:10:57;;;;;;;19.73;4.30;;;23.20;99.90;;;24.04;100.00;97533.50;5065104;28;20468;-79
2021/06/20 02:13:27;;;;;;;11.67;3.70;;;23.20;99.90;;;24.00;100.00;97537.81;5065246;28;20496;-79
2021/06/20 02:15:56;;;;;;;13.40;4.83;;;23.20;99.90;;;23.93;100.00;97530.16;5065509;28;20506;-79
2021/06/20 02:18:25;;;;;;;14.40;4.27;;;23.10;99.90;;;23.83;100.00;97526.81;5062391;28;21028;-79
2021/06/20 02:20:55;;;;;;;16.33;4.30;;;23.00;99.90;;;23.86;100.00;97520.88;5065432;28;20838;-78
2021/06/20 02:23:24;;;;;;;13.10;4.40;;;23.00;99.90;;;23.85;100.00;97519.28;5064823;28;21014;-79
2021/06/20 02:25:52;;;;;;;16.40;4.70;;;23.00;99.90;;;23.83;100.00;97518.78;5065776;28;20838;-79
2021/06/20 02:28:22;;;;;;;20.10;6.00;;;23.00;99.90;;;23.79;100.00;97523.09;5065102;28;20495;-79
2021/06/20 02:30:50;;;;;;;12.47;4.40;;;23.00;99.90;;;23.73;100.00;97518.91;5063172;28;20465;-79
2021/06/20 02:33:19;;;;;;;10.73;4.37;;;22.80;99.90;;;23.54;100.00;97505.47;5063880;28;20541;-79
2021/06/20 02:35:49;;;;;;;12.83;4.50;;;22.60;99.90;;;23.58;100.00;97503.84;5062083;28;20510;-79
2021/06/20 02:38:18;;;;;;;15.27;4.53;;;22.70;99.90;;;23.58;100.00;97513.72;5063053;28;20460;-79
2021/06/20 02:40:46;;;;;;;15.20;4.30;;;22.70;99.90;;;23.55;100.00;97515.88;5069146;28;20867;-79
2021/06/20 02:43:15;;;;;;;20.70;4.43;;;22.70;99.90;;;23.44;100.00;97519.72;5064498;28;20518;-79
2021/06/20 02:45:45;;;;;;;11.33;4.30;;;22.50;99.90;;;23.39;100.00;97517.09;5069059;28;20578;-79
2021/06/20 02:48:14;;;;;;;12.07;4.23;;;22.40;99.90;;;23.40;100.00;97517.88;5070097;28;20505;-79
2021/06/20 02:50:42;;;;;;;10.37;4.77;;;22.30;99.90;;;23.42;100.00;97523.78;5065929;28;20521;-79
2021/06/20 02:53:10;;;;;;;14.40;4.60;;;22.40;99.90;;;23.41;100.00;97535.50;5068208;28;20980;-79
2021/06/20 02:55:39;;;;;;;11.53;4.37;;;22.50;99.90;;;23.36;100.00;97540.88;5068258;28;20521;-79
2021/06/20 02:58:07;;;;;;;24.17;4.20;;;22.40;99.90;;;23.32;100.00;97545.19;5068999;28;20440;-79
2021/06/20 03:00:36;;;;;;;10.57;4.70;;;22.40;99.90;;;23.27;100.00;97550.56;5067255;28;20477;-79
2021/06/20 03:03:06;;;;;;;9.17;3.67;;;22.30;99.90;;;23.21;100.00;97557.81;5066261;28;21003;-79
2021/06/20 03:05:35;;;;;;;11.30;4.07;;;22.20;99.90;;;23.19;100.00;97565.28;5067837;28;20456;-79
2021/06/20 03:08:03;;;;;;;6.87;3.77;;;22.20;99.90;;;23.16;100.00;97571.19;5067737;28;20455;-79
2021/06/20 03:10:32;;;;;;;14.37;4.40;;;22.20;99.90;;;23.15;100.00;97574.16;5067123;28;20890;-79
2021/06/20 03:13:05;;;;;;;11.30;3.60;;;22.20;99.90;;;23.05;100.00;97570.47;5065140;28;20581;-79
2021/06/20 03:15:35;;;;;;;8.60;4.27;;;22.10;99.90;;;23.07;100.00;97564.88;5064722;28;20862;-79
2021/06/20 03:18:06;;;;;;;13.73;3.90;;;22.20;99.90;;;23.06;100.00;97568.59;5068776;28;20517;-79
2021/06/20 03:20:34;;;;;;;14.30;5.00;;;22.30;99.90;;;22.97;100.00;97578.28;5069491;28;20436;-79
2021/06/20 03:23:04;;;;;;;12.40;3.80;;;22.10;99.90;;;23.00;100.00;97577.72;5068727;28;20582;-79
2021/06/20 03:25:33;;;;;;;12.63;4.20;;;22.10;99.90;;;22.93;100.00;97583.38;5069648;28;20441;-79
2021/06/20 03:28:01;;;;;;;14.90;6.90;;;22.20;99.90;;;22.92;100.00;97588.97;5064174;28;20460;-80
2021/06/20 03:30:30;;;;;;;8.43;4.23;;;22.10;99.90;;;22.94;100.00;97590.28;5061819;28;20492;-79
2021/06/20 03:32:58;;;;;;;13.03;4.40;;;22.20;99.90;;;22.96;100.00;97587.34;5065298;28;21011;-79
2021/06/20 03:35:29;;;;;;;6.23;3.60;;;22.10;99.90;;;22.96;100.00;97577.50;5067203;28;20464;-79
2021/06/20 03:37:57;;;;;;;21.67;10.63;;;22.10;99.90;;;22.88;100.00;97587.94;5066720;28;20464;-80
2021/06/20 03:40:27;;;;;;;10.37;3.90;;;22.10;99.90;;;22.91;100.00;97600.72;5064542;28;20456;-79
2021/06/20 03:42:55;;;;;;;36.03;19.40;;;22.00;99.90;;;22.91;100.00;97604.19;5068646;28;20460;-78
2021/06/20 03:45:24;;;;;;;9.03;4.03;;;22.00;99.90;;;22.91;100.00;97606.06;5066550;28;20456;-79
2021/06/20 03:47:53;;;;;;;10.53;3.60;;;22.10;99.90;;;22.87;100.00;97605.03;5067602;28;20538;-79
2021/06/20 03:50:23;;;;;;;12.23;3.73;;;22.10;99.90;;;22.77;100.00;97594.44;5064412;28;20555;-81
2021/06/20 03:52:53;;;;;;;7.27;3.60;;;22.10;99.90;;;22.67;100.00;97591.81;5067571;28;20449;-78
2021/06/20 03:55:21;;;;;;;7.23;3.30;;;21.90;99.90;;;22.76;100.00;97603.50;5064180;28;20437;-78
2021/06/20 03:57:50;;;;;;;9.17;3.73;;;22.00;99.90;;;22.75;100.00;97599.22;5068664;28;20444;-78
2021/06/20 04:00:19;;;;;;;9.80;3.40;;;22.00;99.90;;;22.73;100.00;97596.84;5066159;28;20513;-79
2021/06/20 04:02:48;;;;;;;5.47;2.73;;;22.00;99.90;;;22.73;100.00;97596.06;5068016;28;20476;-78
2021/06/20 04:05:16;;;;;;;14.23;4.00;;;22.00;99.90;;;22.69;100.00;97595.81;5068215;28;20913;-78
2021/06/20 04:07:45;;;;;;;7.23;3.33;;;21.90;99.90;;;22.66;100.00;97587.53;5066181;28;20436;-78
2021/06/20 04:10:15;;;;;;;6.00;3.10;;;21.80;99.90;;;22.69;100.00;97595.00;5060255;28;20743;-79
2021/06/20 04:12:44;;;;;;;12.00;4.77;;;21.80;99.90;;;22.72;100.00;97599.78;5064449;28;20506;-79
2021/06/20 04:15:13;;;;;;;11.73;3.87;;;21.90;99.90;;;22.75;100.00;97601.91;5066120;28;20503;-78
2021/06/20 04:17:44;;;;;;;9.90;3.13;;;22.00;99.90;;;22.76;100.00;97598.97;5064163;28;20453;-78
2021/06/20 04:20:15;;;;;;;7.97;3.93;;;22.00;99.90;;;22.80;100.00;97605.34;5065546;28;20468;-78
2021/06/20 04:22:44;;;;;;;8.27;3.23;;;21.90;99.90;;;22.80;100.00;97605.34;5067667;28;20445;-78
2021/06/20 04:25:16;;;;;;;5.10;3.10;;;22.00;99.90;;;22.84;100.00;97610.94;5065873;28;20456;-78
2021/06/20 04:27:47;;;;;;;7.27;3.47;;;22.00;99.90;;;22.77;100.00;97616.53;5066706;28;20460;-79
2021/06/20 04:30:19;;;;;;;7.47;2.90;;;22.00;99.90;;;22.70;100.00;97626.72;5064362;28;20529;-79
2021/06/20 04:32:49;;;;;;;10.27;3.60;;;21.80;99.90;;;22.73;100.00;97620.84;5062932;28;21037;-79
2021/06/20 04:35:19;;;;;;;10.70;3.00;;;21.80;99.90;;;22.76;100.00;97630.97;5059423;28;20495;-78
2021/06/20 04:37:50;;;;;;;8.47;3.67;;;21.80;99.90;;;22.81;100.00;97624.78;5065163;28;20466;-78
2021/06/20 04:40:21;;;;;;;6.73;3.23;;;21.90;99.90;;;22.80;100.00;97628.53;5067267;28;20514;-78
2021/06/20 04:42:57;;;;;;;7.77;3.27;;;21.90;99.90;;;22.69;100.00;97624.34;5064080;28;20495;-78
2021/06/20 04:45:26;;;;;;;19.47;3.50;;;21.70;99.90;;;22.76;100.00;97624.81;5063963;28;20464;-79
2021/06/20 04:47:56;;;;;;;5.43;3.00;;;21.90;99.90;;;22.76;100.00;97630.16;5063482;28;20468;-79
2021/06/20 04:50:24;;;;;;;9.77;3.60;;;21.80;99.90;;;22.68;100.00;97633.41;5064231;28;20815;-79
2021/06/20 04:52:53;;;;;;;7.90;3.17;;;21.70;99.90;;;22.70;100.00;97639.28;5065875;28;20455;-79
2021/06/20 04:55:23;;;;;;;5.07;3.10;;;21.80;99.90;;;22.64;100.00;97635.78;5067542;28;21072;-79
2021/06/20 04:57:52;;;;;;;4.77;2.73;;;21.70;99.90;;;22.71;100.00;97628.31;5063394;28;20456;-79
2021/06/20 05:00:21;;;;;;;6.73;3.20;;;21.80;99.90;;;22.74;100.00;97630.44;5064868;28;20476;-79
2021/06/20 05:02:50;;;;;;;7.57;2.60;;;21.80;99.90;;;22.73;100.00;97636.03;5064647;28;20587;-78
2021/06/20 05:05:18;;;;;;;5.80;3.10;;;21.90;99.90;;;22.72;100.00;97629.91;5068233;28;20534;-79
2021/06/20 05:07:47;;;;;;;10.30;2.73;;;21.90;99.90;;;22.77;100.00;97634.44;5061273;28;20471;-79
2021/06/20 05:10:16;;;;;;;9.40;2.87;;;22.00;99.90;;;22.76;100.00;97633.63;5064032;28;20452;-79
2021/06/20 05:12:46;;;;;;;5.03;2.80;;;21.80;99.90;;;22.76;100.00;97640.81;5062710;28;20850;-79
2021/06/20 05:15:16;;;;;;;12.20;4.60;;;21.80;99.90;;;22.75;100.00;97642.69;5064591;28;21110;-79
2021/06/20 05:17:45;;;;;;;18.73;3.40;;;21.90;99.90;;;22.69;100.00;97649.13;5065027;28;20456;-78
2021/06/20 05:20:14;;;;;;;8.33;3.33;;;21.80;99.90;;;22.70;100.00;97642.69;5066096;28;20456;-78
2021/06/20 05:22:43;;;;;;;3.00;2.43;;;21.80;99.90;;;22.65;100.00;97633.91;5064656;28;21016;-78
2021/06/20 05:25:13;;;;;;;5.30;2.57;;;21.70;99.90;;;22.66;100.00;97633.66;5063801;28;20509;-78
2021/06/20 05:27:42;;;;;;;11.83;3.30;;;21.90;99.90;;;22.69;100.00;97629.66;5065847;28;20991;-78
2021/06/20 05:30:14;;;;;;;5.87;2.23;;;21.90;99.90;;;22.70;100.00;97631.28;5060809;28;20459;-78
2021/06/20 05:32:43;;;;;;;7.90;2.73;;;21.90;99.90;;;22.61;100.00;97628.34;5065278;28;20503;-78
2021/06/20 05:35:12;;;;;;;12.93;2.37;;;21.80;99.90;;;22.66;100.00;97640.84;5064314;28;20550;-78
2021/06/20 05:37:40;;;;;;;10.70;2.47;;;21.80;99.90;;;22.68;100.00;97630.72;5063599;28;20491;-78
2021/06/20 05:40:10;;;;;;;4.03;2.10;;;21.90;99.90;;;22.63;100.00;97625.41;5062499;28;20459;-79
2021/06/20 05:42:39;;;;;;;4.80;2.30;;;21.90;99.90;;;22.64;100.00;97621.66;5066589;28;20472;-79
2021/06/20 05:45:13;;;;;;;7.53;2.17;;;21.90;99.90;;;22.64;100.00;97616.31;5064639;28;20472;-79
2021/06/20 05:47:42;;;;;;;6.13;2.10;;;21.80;99.90;;;22.56;100.00;97621.16;5063967;28;20504;-79
2021/06/20 05:50:12;;;;;;;7.93;2.43;;;21.70;99.90;;;22.53;100.00;97611.03;5064240;28;20875;-79
2021/06/20 05:52:41;;;;;;;8.00;3.13;;;21.60;99.90;;;22.51;100.00;97610.53;5064470;28;20461;-78
2021/06/20 05:55:10;;;;;;;21.13;11.70;;;21.60;99.90;;;22.49;100.00;97611.88;5062769;28;20488;-79
2021/06/20 05:57:39;;;;;;;4.67;2.80;;;21.60;99.90;;;22.53;100.00;97619.03;5064358;28;20455;-78
2021/06/20 06:00:11;;;;;;;8.50;2.43;;;21.50;99.90;;;22.57;100.00;97628.09;5067555;28;20514;-78
2021/06/20 06:02:41;;;;;;;3.60;2.27;;;21.60;99.90;;;22.57;100.00;97622.75;5065912;28;21004;-79
2021/06/20 06:05:11;;;;;;;4.23;2.33;;;21.60;99.90;;;22.51;100.00;97623.84;5063793;28;20464;-79
2021/06/20 06:07:39;;;;;;;6.60;2.67;;;21.50;99.90;;;22.58;100.00;97635.03;5062609;28;20952;-79
2021/06/20 06:10:26;;;;;;;8.23;2.50;;;21.60;99.90;;;22.63;100.00;97636.06;5062794;28;20633;-78
2021/06/20 06:12:55;;;;;;;5.20;2.90;;;21.70;99.90;;;22.58;100.00;97637.69;5063635;28;20497;-78
2021/06/20 06:15:25;;;;;;;4.37;2.33;;;21.60;99.90;;;22.56;100.00;97631.81;5066284;28;21381;-79
2021/06/20 06:17:55;;;;;;;6.23;2.53;;;21.50;99.90;;;22.58;100.00;97623.56;5066873;28;20581;-78
2021/06/20 06:20:24;;;;;;;3.20;2.47;;;21.60;99.90;;;22.59;100.00;97612.59;5068449;28;20452;-80
2021/06/20 06:22:53;;;;;;;3.57;2.43;;;21.70;99.90;;;22.61;100.00;97607.00;5069502;28;20460;-78
2021/06/20 06:25:21;;;;;;;6.60;2.50;;;21.60;99.90;;;22.55;100.00;97603.59;5068589;28;20456;-79
2021/06/20 06:27:51;;;;;;;6.47;2.70;;;21.60;99.90;;;22.56;100.00;97605.16;5068305;28;20513;-79
2021/06/20 06:30:21;;;;;;;6.13;2.83;;;21.60;99.90;;;22.59;100.00;97609.94;5068312;28;20467;-79
2021/06/20 06:32:52;;;;;;;5.30;2.40;;;21.60;99.90;;;22.65;100.00;97618.72;5065533;28;20517;-79
2021/06/20 06:35:21;;;;;;;9.20;2.60;;;21.70;99.90;;;22.70;100.00;97628.59;5069325;28;20524;-79
2021/06/20 06:37:51;;;;;;;3.70;2.10;;;21.70;99.90;;;22.74;100.00;97624.28;5065393;28;20487;-79
2021/06/20 06:40:20;;;;;;;6.77;3.23;;;21.80;99.90;;;22.73;100.00;97630.72;5069171;28;20463;-80
2021/06/20 06:42:48;;;;;;;6.13;2.33;;;21.70;99.90;;;22.76;100.00;97646.16;5069049;28;20458;-79
2021/06/20 06:45:17;;;;;;;4.70;2.70;;;21.70;99.90;;;22.79;100.00;97656.28;5068518;28;20623;-79
2021/06/20 06:47:46;;;;;;;9.33;2.80;;;21.80;99.90;;;22.81;100.00;97664.78;5065829;28;20548;-79
2021/06/20 06:50:18;;;;;;;10.70;2.80;;;21.80;99.90;;;22.79;100.00;97672.28;5071105;28;20921;-79
2021/06/20 06:52:47;;;;;;;7.73;3.10;;;21.70;99.90;;;22.87;100.00;97669.81;5070156;28;20463;-79
2021/06/20 06:55:17;;;;;;;3.80;2.67;;;21.80;99.90;;;22.83;100.00;97665.31;5062227;28;20499;-78
2021/06/20 06:57:47;;;;;;;3.40;2.53;;;21.80;99.90;;;22.84;100.00;97658.94;5067831;28;20455;-79
2021/06/20 07:00:17;;;;;;;5.23;2.80;;;21.90;99.90;;;22.79;100.00;97665.06;5067098;28;21062;-78
2021/06/20 07:02:45;;;;;;;5.27;2.57;;;21.80;99.90;;;22.82;100.00;97656.53;5068148;28;20484;-79
2021/06/20 07:05:16;;;;;;;4.17;2.40;;;21.90;99.90;;;22.80;100.00;97657.88;5067795;28;20456;-79
2021/06/20 07:07:45;;;;;;;10.53;2.83;;;21.80;99.90;;;22.86;100.00;97664.78;5068045;28;20463;-79
2021/06/20 07:10:14;;;;;;;4.60;2.57;;;21.80;99.90;;;22.78;100.00;97654.66;5061822;28;20459;-79
2021/06/20 07:12:43;;;;;;;51.20;37.13;;;21.80;99.90;;;22.76;100.00;97646.97;5067970;28;20945;-82
2021/06/20 07:15:13;;;;;;;8.27;3.10;;;21.80;99.90;;;22.77;100.00;97647.75;5062532;28;20571;-78
2021/06/20 07:17:42;;;;;;;12.40;2.70;;;21.80;99.90;;;22.77;100.00;97642.44;5069824;28;20432;-78
2021/06/20 07:20:15;;;;;;;5.10;2.23;;;21.80;99.90;;;22.84;100.00;97653.59;5067445;28;20929;-78
2021/06/20 07:22:48;;;;;;;4.07;2.50;;;21.90;99.90;;;22.88;100.00;97643.94;5067628;28;20475;-78
2021/06/20 07:25:20;;;;;;;7.63;2.30;;;21.90;99.90;;;22.90;100.00;97634.63;5065845;28;20460;-79
2021/06/20 07:27:50;;;;;;;6.07;2.57;;;21.90;99.90;;;22.97;100.00;97647.66;5069296;28;20444;-79
2021/06/20 07:30:21;;;;;;;6.33;2.63;;;22.00;99.90;;;23.03;100.00;97654.53;5069524;28;20523;-79
2021/06/20 07:32:50;;;;;;;4.27;2.50;;;22.10;99.90;;;23.05;98.06;97660.38;5069282;28;20593;-79
2021/06/20 07:35:19;;;;;;;7.13;2.70;;;22.10;99.90;;;23.10;98.02;97663.03;5070764;28;20480;-79
2021/06/20 07:37:49;;;;;;;5.47;2.70;;;22.20;99.90;;;23.08;96.61;97662.53;5065367;28;20564;-82
2021/06/20 07:40:19;;;;;;;7.63;4.20;;;22.10;99.90;;;23.12;96.35;97658.19;5067238;28;20453;-79
2021/06/20 07:42:47;;;;;;;6.90;2.20;;;22.20;99.90;;;23.04;93.74;97653.47;5069067;28;20460;-78
2021/06/20 07:45:17;;;;;;;4.97;2.30;;;22.10;99.90;;;22.99;93.47;97650.81;5066375;28;20583;-79
2021/06/20 07:47:46;;;;;;;7.83;2.33;;;22.00;99.90;;;22.98;92.64;97646.56;5069574;28;20459;-78
2021/06/20 07:50:16;;;;;;;4.83;2.17;;;22.00;99.90;;;23.03;93.38;97633.19;5069330;28;20523;-78
2021/06/20 07:52:45;;;;;;;5.27;2.03;;;22.10;99.90;;;23.11;93.44;97624.59;5068844;28;20452;-78
2021/06/20 07:55:15;;;;;;;4.63;2.30;;;22.20;99.90;;;23.06;93.43;97627.31;5069538;28;20494;-79
2021/06/20 07:57:45;;;;;;;9.13;2.33;;;22.20;99.90;;;23.04;93.88;97637.47;5062704;28;20451;-79
2021/06/20 08:00:15;;;;;;;4.67;2.53;;;22.10;99.90;;;23.08;93.51;97622.50;5065890;28;21051;-79
2021/06/20 08:02:43;;;;;;;8.97;2.57;;;22.20;99.90;;;23.11;94.09;97616.59;5066671;28;20483;-79
2021/06/20 08:05:13;;;;;;;7.17;2.80;;;22.20;99.90;;;23.18;94.36;97619.75;5066362;28;20589;-78
2021/06/20 08:07:42;;;;;;;5.13;2.10;;;22.30;99.90;;;23.14;94.67;97626.72;5067866;28;20452;-78
2021/06/20 08:10:12;;;;;;;11.70;3.00;;;22.20;99.90;;;23.12;94.41;97618.19;5066158;28;20459;-78
2021/06/20 08:12:42;;;;;;;7.83;2.83;;;22.20;99.90;;;23.12;95.37;97614.75;5068865;28;20457;-78
2021/06/20 08:15:12;;;;;;;7.63;2.33;;;22.10;99.90;;;23.23;94.49;97606.38;5068612;28;20448;-79
2021/06/20 08:17:41;;;;;;;4.50;2.53;;;22.40;99.90;;;23.36;94.29;97605.72;5068869;28;20522;-79
2021/06/20 08:20:12;;;;;;;7.20;2.70;;;22.50;99.90;;;23.45;93.45;97611.28;5068336;28;20531;-79
2021/06/20 08:22:41;;;;;;;4.50;2.53;;;22.60;99.90;;;23.46;92.68;97624.34;5067391;28;20444;-78
2021/06/20 08:25:12;;;;;;;4.80;2.67;;;22.60;99.90;;;23.49;92.47;97617.66;5062865;28;20960;-79
2021/06/20 08:27:43;;;;;;;5.80;2.60;;;22.60;99.90;;;23.41;90.47;97624.41;5065940;28;20471;-78
2021/06/20 08:30:13;;;;;;;4.30;2.83;;;22.50;99.90;;;23.46;90.16;97629.69;5068581;28;20441;-79
2021/06/20 08:32:42;;;;;;;3.97;2.63;;;22.60;99.90;;;23.51;89.69;97629.66;5068717;28;20486;-79
2021/06/20 08:35:16;;;;;;;6.17;3.20;;;22.60;99.90;;;23.61;90.12;97627.97;5067904;28;20451;-79
2021/06/20 08:37:46;;;;;;;7.20;2.67;;;22.70;99.90;;;23.69;90.80;97625.50;5067008;28;20515;-79
2021/06/20 08:40:16;;;;;;;4.13;2.27;;;22.80;99.90;;;23.79;91.02;97636.06;5068269;28;20440;-78
2021/06/20 08:42:46;;;;;;;3.20;2.50;;;22.90;99.90;;;23.88;91.84;97636.28;5064714;28;20475;-81
2021/06/20 08:45:16;;;;;;;4.83;2.87;;;23.00;99.90;;;23.90;90.55;97648.25;5063207;28;20514;-79
2021/06/20 08:47:46;;;;;;;4.20;3.17;;;23.00;99.90;;;23.94;89.41;97646.63;5067716;28;20436;-78
2021/06/20 08:50:15;;;;;;;9.73;2.40;;;23.00;99.90;;;24.01;89.38;97652.44;5066142;28;20555;-78
2021/06/20 08:52:44;;;;;;;4.23;2.70;;;23.20;99.90;;;24.02;87.68;97647.84;5065815;28;20440;-78
2021/06/20 08:55:14;;;;;;;3.57;2.33;;;23.10;99.90;;;24.07;86.99;97645.16;5067918;28;20501;-78
2021/06/20 08:57:48;;;;;;;3.10;2.63;;;23.20;99.90;;;24.14;86.35;97645.63;5067821;28;20504;-78
2021/06/20 09:00:20;;;;;;;7.10;3.10;;;23.20;99.90;;;24.22;87.21;97636.22;5067356;28;20818;-78
2021/06/20 09:02:59;;;;;;;9.70;3.40;;;23.30;99.90;;;24.29;87.67;97639.31;5067878;28;20551;-78
2021/06/20 09:05:28;;;;;;;7.33;3.13;;;23.40;99.90;;;24.31;85.32;97637.97;5067406;28;20449;-79
2021/06/20 09:07:57;;;;;;;4.07;2.90;;;23.40;99.90;;;24.33;84.54;97633.09;5065346;28;20506;-78
2021/06/20 09:10:29;;;;;;;25.63;15.50;;;23.40;99.90;;;24.38;86.23;97627.72;5062995;28;20956;-82
2021/06/20 09:13:01;;;;;;;5.03;3.60;;;23.50;99.90;;;24.46;86.03;97623.63;5064446;28;20525;-78
2021/06/20 09:15:34;;;;;;;4.70;3.43;;;23.60;99.90;;;24.55;85.17;97625.34;5063245;28;20452;-78
2021/06/20 09:18:10;;;;;;;9.53;3.10;;;23.60;99.90;;;24.46;83.04;97635.13;5064597;28;20549;-78
2021/06/20 09:20:41;;;;;;;6.33;3.70;;;23.60;99.90;;;24.39;82.92;97625.84;5063889;28;20490;-79
2021/06/20 09:23:14;;;;;;;8.33;3.47;;;23.50;99.90;;;24.46;84.11;97635.13;5064283;28;20471;-79
2021/06/20 09:25:45;;;;;;;4.13;3.50;;;23.60;99.90;;;24.49;84.08;97625.72;5062928;28;20472;-79
2021/06/20 09:28:15;;;;;;;8.00;4.20;;;23.50;99.90;;;24.57;84.62;97621.59;5064977;28;20464;-80
2021/06/20 09:30:48;;;;;;;5.57;3.60;;;23.60;99.90;;;24.63;83.58;97615.09;5063405;28;20957;-80
2021/06/20 09:33:19;;;;;;;5.63;3.13;;;23.70;99.90;;;24.62;81.70;97619.66;5064794;28;21038;-79
2021/06/20 09:35:52;;;;;;;11.40;3.60;;;23.80;99.90;;;24.66;82.02;97617.19;5064096;28;20464;-79
2021/06/20 09:38:23;;;;;;;5.00;3.87;;;23.90;99.90;;;24.64;82.42;97606.00;5063059;28;20531;-81
2021/06/20 09:40:53;;;;;;;5.47;3.70;;;23.80;99.90;;;24.63;81.96;97609.75;5063066;28;20464;-79
2021/06/20 09:43:23;;;;;;;4.43;3.70;;;23.70;99.90;;;24.57;81.62;97603.69;5066789;28;20498;-79
2021/06/20 09:45:52;;;;;;;5.43;3.53;;;23.60;99.90;;;24.60;81.50;97611.13;5064422;28;20521;-79
2021/06/20 09:48:28;;;;;;;4.20;3.30;;;23.70;99.90;;;24.68;82.55;97601.69;5065728;28;20453;-79
2021/06/20 09:50:58;;;;;;;5.57;4.00;;;23.80;99.90;;;24.73;82.48;97602.38;5066022;28;20436;-79
2021/06/20 09:53:38;;;;;;;7.23;3.67;;;23.90;99.90;;;24.72;81.25;97605.34;5067748;28;20459;-79
2021/06/20 09:56:13;;;;;;;5.10;3.27;;;23.90;99.90;;;24.70;80.14;97600.31;5067570;28;20440;-79
2021/06/20 09:58:45;;;;;;;6.77;3.37;;;23.80;99.90;;;24.81;81.29;97593.72;5066319;28;20440;-79
2021/06/20 10:01:16;;;;;;;6.27;3.47;;;23.90;99.90;;;24.74;80.87;97587.16;5063013;28;20949;-79
2021/06/20 10:03:46;;;;;;;41.70;25.53;;;23.90;99.90;;;24.82;81.28;97591.81;5065356;28;20514;-80
2021/06/20 10:06:17;;;;;;;5.90;3.53;;;24.00;99.90;;;24.87;81.19;97591.78;5062963;28;20468;-80
2021/06/20 10:08:46;;;;;;;5.90;3.57;;;24.00;99.90;;;24.84;80.25;97587.81;5062528;28;20560;-80
2021/06/20 10:11:16;;;;;;;6.47;3.40;;;24.00;99.90;;;24.93;81.43;97593.31;5058294;28;20966;-80
2021/06/20 10:13:48;;;;;;;7.20;3.33;;;24.10;99.90;;;24.93;80.59;97585.28;5063645;28;20545;-80
2021/06/20 10:16:22;;;;;;;10.23;3.20;;;24.10;99.90;;;24.88;78.18;97585.38;5066021;28;20490;-80
2021/06/20 10:18:56;;;;;;;7.60;3.47;;;24.00;99.90;;;24.74;77.99;97587.94;5062903;28;20545;-79
2021/06/20 10:21:36;;;;;;;28.17;19.93;;;23.80;99.90;;;24.76;79.38;97568.91;5061761;28;20461;-79